createdAt,value
2022-08-14T00:03:37.660Z,2.00
2022-08-14T00:08:44.757Z,1.70
2022-08-14T00:13:52.840Z,1.77
2022-08-14T00:19:06.914Z,1.75
2022-08-14T00:24:28.383Z,1.65
2022-08-14T00:29:39.839Z,1.88
2022-08-14T00:34:46.687Z,2.08
2022-08-14T00:39:51.202Z,1.60
2022-08-14T00:44:53.662Z,2.00
2022-08-14T00:49:57.282Z,1.92
2022-08-14T00:54:59.797Z,2.00
2022-08-14T01:00:07.488Z,1.70
2022-08-14T01:05:50.640Z,1.98
2022-08-14T01:10:51.440Z,1.58
2022-08-14T01:15:58.363Z,1.80
2022-08-14T01:21:11.872Z,2.05
2022-08-14T01:26:34.466Z,1.98
2022-08-14T01:31:42.226Z,1.95
2022-08-14T01:36:45.730Z,2.30
2022-08-14T01:41:53.005Z,2.35
2022-08-14T01:47:01.252Z,2.13
2022-08-14T01:52:03.692Z,2.25
2022-08-14T01:57:11.655Z,2.45
2022-08-14T02:02:14.819Z,1.98
2022-08-14T02:07:44.642Z,2.03
2022-08-14T02:12:49.024Z,2.15
2022-08-14T02:18:01.680Z,2.65
2022-08-14T02:23:04.195Z,2.40
2022-08-14T02:28:24.028Z,2.33
2022-08-14T02:33:29.401Z,2.10
2022-08-14T02:38:35.627Z,2.00
2022-08-14T02:43:46.470Z,2.65
2022-08-14T02:49:04.567Z,1.88
2022-08-14T02:54:09.785Z,1.70
2022-08-14T02:59:15.987Z,1.77
2022-08-14T03:04:20.607Z,2.10
2022-08-14T03:09:22.641Z,1.75
2022-08-14T03:14:27.595Z,1.60
2022-08-14T03:19:29.344Z,2.10
2022-08-14T03:24:32.217Z,2.33
2022-08-14T03:29:35.788Z,1.85
2022-08-14T03:34:52.720Z,1.90
2022-08-14T03:39:57.335Z,2.42
2022-08-14T03:45:18.956Z,2.10
2022-08-14T03:50:30.716Z,2.22
2022-08-14T03:55:33.334Z,2.35
2022-08-14T04:00:44.274Z,2.05
2022-08-14T04:05:49.090Z,2.53
2022-08-14T04:10:50.871Z,2.28
2022-08-14T04:16:01.664Z,2.60
2022-08-14T04:21:06.431Z,2.58
2022-08-14T04:26:14.849Z,2.28
2022-08-14T04:33:02.795Z,2.50
2022-08-14T04:37:08.531Z,2.70
2022-08-14T04:42:28.766Z,3.80
2022-08-14T04:47:53.780Z,2.58
2022-08-14T04:52:56.833Z,2.53
2022-08-14T04:57:59.411Z,2.83
2022-08-14T05:03:03.448Z,2.40
2022-08-14T05:08:31.664Z,1.90
2022-08-14T05:13:53.222Z,2.33
2022-08-14T05:19:18.095Z,2.47
2022-08-14T05:24:19.396Z,2.58
2022-08-14T05:29:21.143Z,2.58
2022-08-14T05:34:28.686Z,2.20
2022-08-14T05:39:31.899Z,2.33
2022-08-14T05:44:33.726Z,1.50
2022-08-14T05:49:35.440Z,1.40
2022-08-14T05:54:39.773Z,1.30
2022-08-14T05:59:41.975Z,1.30
2022-08-14T06:04:49.398Z,1.30
2022-08-14T06:09:52.254Z,1.45
2022-08-14T06:14:54.166Z,1.40
2022-08-14T06:19:55.829Z,1.40
2022-08-14T06:24:57.795Z,1.63
2022-08-14T06:29:59.327Z,1.60
2022-08-14T06:35:12.305Z,1.20
2022-08-14T06:40:26.920Z,1.48
2022-08-14T06:45:30.231Z,1.42
2022-08-14T06:50:33.689Z,1.30
2022-08-14T06:55:37.041Z,1.50
2022-08-14T07:01:02.701Z,1.13
2022-08-14T07:06:11.648Z,1.33
2022-08-14T07:11:22.892Z,1.60
2022-08-14T07:16:24.433Z,1.10
2022-08-14T07:21:29.336Z,1.50
2022-08-14T07:26:32.448Z,1.23
2022-08-14T07:31:34.045Z,1.52
2022-08-14T07:36:35.822Z,1.13
2022-08-14T07:41:37.369Z,1.02
2022-08-14T07:46:38.853Z,1.40
2022-08-14T07:51:41.952Z,1.40
2022-08-14T07:56:48.852Z,1.20
2022-08-14T08:01:53.573Z,1.58
2022-08-14T08:07:00.807Z,1.05
2022-08-14T08:12:04.504Z,1.52
2022-08-14T08:17:06.741Z,1.20
2022-08-14T08:22:08.502Z,1.10
2022-08-14T08:27:22.370Z,1.88
2022-08-14T08:32:39.259Z,1.52
2022-08-14T08:37:43.659Z,1.30
2022-08-14T08:42:45.544Z,1.30
2022-08-14T08:47:53.734Z,1.23
2022-08-14T08:52:55.585Z,1.35
2022-08-14T08:58:03.972Z,1.40
2022-08-14T09:03:20.506Z,1.17
2022-08-14T09:08:31.503Z,1.15
2022-08-14T09:13:34.114Z,0.73
2022-08-14T09:18:36.014Z,1.52
2022-08-14T09:24:28.336Z,1.10
2022-08-14T09:28:59.595Z,1.00
2022-08-14T09:34:27.354Z,1.40
2022-08-14T09:39:42.797Z,1.20
2022-08-14T09:44:54.507Z,1.60
2022-08-14T09:49:56.681Z,1.58
2022-08-14T09:54:58.271Z,1.20
2022-08-14T10:00:27.186Z,1.45
2022-08-14T10:05:35.070Z,1.30
2022-08-14T10:15:46.601Z,1.70
2022-08-14T10:20:59.169Z,1.88
2022-08-14T10:26:06.992Z,1.83
2022-08-14T10:31:25.624Z,1.42
2022-08-14T10:36:35.033Z,1.50
2022-08-14T10:41:46.685Z,1.30
2022-08-14T10:47:39.723Z,1.20
2022-08-14T10:52:21.991Z,1.88
2022-08-14T10:57:25.837Z,1.38
2022-08-14T11:02:45.062Z,1.30
2022-08-14T11:07:57.169Z,1.30
2022-08-14T11:13:02.069Z,1.30
2022-08-14T11:18:06.162Z,1.30
2022-08-14T11:23:15.299Z,1.10
2022-08-14T11:28:19.840Z,1.15
2022-08-14T11:33:41.970Z,1.10
2022-08-14T11:38:48.134Z,1.20
2022-08-14T11:43:58.506Z,1.20
2022-08-14T11:49:05.423Z,1.25
2022-08-14T11:54:08.361Z,1.45
2022-08-14T11:59:17.966Z,1.30
2022-08-14T12:04:32.710Z,1.20
2022-08-14T12:09:37.778Z,1.00
2022-08-14T12:14:49.337Z,1.05
2022-08-14T12:19:58.883Z,1.55
2022-08-14T12:25:00.993Z,1.00
2022-08-14T12:30:04.079Z,1.10
2022-08-14T12:35:07.094Z,1.10
2022-08-14T12:40:15.612Z,1.08
2022-08-14T12:45:31.466Z,0.90
2022-08-14T12:50:42.123Z,1.25
2022-08-14T12:56:18.346Z,1.27
2022-08-14T13:01:27.706Z,1.20
2022-08-14T13:06:29.396Z,1.30
2022-08-14T13:11:45.194Z,1.17
2022-08-14T13:16:50.314Z,1.10
2022-08-14T13:22:04.695Z,1.30
2022-08-14T13:27:10.021Z,1.15
2022-08-14T13:32:13.658Z,1.13
2022-08-14T13:37:17.574Z,1.00
2022-08-14T13:42:22.973Z,1.00
2022-08-14T13:47:30.625Z,0.85
2022-08-14T13:52:54.761Z,1.00
2022-08-14T13:58:03.675Z,0.77
2022-08-14T14:03:08.667Z,1.08
2022-08-14T14:08:19.134Z,0.80
2022-08-14T14:13:33.986Z,0.88
2022-08-14T14:18:41.576Z,1.05
2022-08-14T14:23:45.622Z,1.10
2022-08-14T14:28:50.766Z,1.45
2022-08-14T14:33:58.268Z,1.20
2022-08-14T14:39:05.343Z,1.90
2022-08-14T14:44:09.365Z,1.70
2022-08-14T14:49:14.710Z,1.75
2022-08-14T14:54:18.040Z,1.90
2022-08-14T14:59:20.165Z,1.83
2022-08-14T15:04:21.888Z,1.48
2022-08-14T15:09:24.600Z,1.70
2022-08-14T15:14:57.125Z,1.63
2022-08-14T15:19:56.659Z,1.67
2022-08-14T15:24:58.863Z,1.40
2022-08-14T15:30:00.674Z,1.40
2022-08-14T15:35:03.849Z,1.35
2022-08-14T15:40:21.933Z,1.40
2022-08-14T15:45:24.286Z,1.35
2022-08-14T15:50:26.165Z,1.40
2022-08-14T15:55:30.501Z,1.50
2022-08-14T16:00:55.011Z,1.10
2022-08-14T16:05:56.716Z,1.23
2022-08-14T16:11:04.977Z,1.30
2022-08-14T16:16:46.996Z,0.88
2022-08-14T16:22:02.605Z,0.93
2022-08-14T16:27:07.534Z,0.73
2022-08-14T16:32:33.500Z,1.00
2022-08-14T16:37:35.315Z,1.10
2022-08-14T16:43:04.530Z,0.93
2022-08-14T16:48:05.247Z,1.15
2022-08-14T16:53:26.893Z,1.20
2022-08-14T16:58:30.054Z,0.82
2022-08-14T17:03:40.883Z,1.27
2022-08-14T17:08:46.221Z,1.20
2022-08-14T17:14:00.627Z,1.05
2022-08-14T17:19:04.876Z,1.10
2022-08-14T17:24:58.414Z,1.90
2022-08-14T17:29:44.791Z,2.92
2022-08-14T17:35:01.845Z,2.60
2022-08-14T17:40:15.757Z,3.03
2022-08-14T17:45:28.302Z,3.22
2022-08-14T17:50:58.481Z,2.53
2022-08-14T17:56:04.109Z,2.83
2022-08-14T18:01:06.040Z,2.40
2022-08-14T18:06:39.809Z,2.50
2022-08-14T18:11:45.727Z,2.40
2022-08-14T18:16:50.370Z,2.30
2022-08-14T18:21:56.915Z,2.50
2022-08-14T18:27:09.155Z,2.40
2022-08-14T18:32:32.790Z,2.35
2022-08-14T18:37:38.743Z,2.42
2022-08-14T18:42:44.169Z,3.00
2022-08-14T18:48:16.054Z,3.38
2022-08-14T18:53:19.083Z,2.70
2022-08-14T18:58:40.057Z,2.22
2022-08-14T19:03:46.419Z,2.38
2022-08-14T19:08:50.045Z,2.35
2022-08-14T19:13:51.835Z,2.33
2022-08-14T19:19:00.480Z,2.08
2022-08-14T19:24:27.797Z,2.25
2022-08-14T19:29:38.093Z,2.50
2022-08-14T19:34:52.129Z,2.30
2022-08-14T19:39:56.159Z,2.65
2022-08-14T19:44:58.373Z,2.17
2022-08-14T19:50:24.625Z,2.72
2022-08-14T19:55:34.404Z,1.80
2022-08-14T20:00:51.717Z,2.50
2022-08-14T20:06:05.989Z,2.38
2022-08-14T20:12:02.226Z,2.72
2022-08-14T20:16:49.621Z,2.78
2022-08-14T20:22:35.221Z,2.17
2022-08-14T20:27:34.180Z,2.60
2022-08-14T20:32:48.516Z,2.28
2022-08-14T20:38:29.888Z,2.10
2022-08-14T20:43:55.084Z,2.22
2022-08-14T20:49:05.108Z,2.67
2022-08-14T20:54:09.090Z,2.53
2022-08-14T20:59:24.490Z,2.28
2022-08-14T21:04:36.690Z,2.80
2022-08-14T21:10:06.258Z,3.03
2022-08-14T21:15:20.411Z,3.15
2022-08-14T21:20:27.137Z,2.70
2022-08-14T21:25:32.217Z,2.60
2022-08-14T21:30:41.829Z,2.25
2022-08-14T21:35:55.447Z,1.98
2022-08-14T21:40:57.615Z,2.17
2022-08-14T21:46:00.746Z,2.70
2022-08-14T21:51:53.502Z,2.47
2022-08-14T21:56:39.048Z,2.72
2022-08-14T22:02:00.358Z,2.75
2022-08-14T22:07:05.513Z,2.95
2022-08-14T22:12:10.329Z,2.85
2022-08-14T22:17:17.209Z,2.83
2022-08-14T22:22:18.906Z,2.47
2022-08-14T22:27:21.333Z,2.72
2022-08-14T22:32:34.941Z,2.70
2022-08-14T22:37:39.591Z,2.90
2022-08-14T22:43:00.084Z,2.92
2022-08-14T22:48:03.556Z,2.70
2022-08-14T22:53:06.785Z,2.70
2022-08-14T22:58:08.453Z,2.45
2022-08-14T23:03:16.941Z,2.65
2022-08-14T23:08:58.288Z,2.75
2022-08-14T23:13:43.576Z,3.17
2022-08-14T23:18:53.953Z,3.13
2022-08-14T23:23:58.457Z,2.38
2022-08-14T23:29:00.986Z,2.88
2022-08-14T23:34:07.168Z,2.95
2022-08-14T23:39:12.331Z,2.80
2022-08-14T23:44:23.549Z,2.80
2022-08-14T23:49:25.799Z,2.70
2022-08-14T23:54:48.895Z,2.90
2022-08-14T23:59:54.134Z,2.67
